Other Surface Observations
Issued by NWS Missoula, MT

Home | Current Version | Previous Version | Text Only | Print | Product List | Glossary On
Versions: 1 2 3 4 5 6 7 8 9 10 11 12 13 14 15 16 17 18 19 20 21 22 23 24 25 26 27 28 29 30 31 32 33 34 35 36 37 38 39 40 41 42 43 44 45 46 47 48 49 50
000
SXUS55 KMSO 311423
OSOMSO
MONTANA AWOS SUMMARY
NATIONAL WEATHER SERVICE MISSOULA MT
823 AM MDT MON AUG 31 2015

Montana AWOS Reports

SCOBEY      |K9S2 311355Z AUTO 25012G17KT 25SM 13/05 A2983 RMK AO1 T01280050
EKALAKA     |K97M 311355Z AUTO 00000KT 25SM 12/09 A2998 RMK AO1 T01220089
MALTA       |KM75 311355Z AUTO 25008KT 40SM 12/06 A2983 RMK AO1 T01170056
LAUREL      |K6S8 311415Z AUTO 00000KT 15SM 14/06 A2998 RMK AO1 T01440061
TWIN BRIDGES|K7S1 311415Z AUTO 12005KT 25SM 08/01 A3007 RMK AO1 T00830011
ROUNDUP     |KRPX 311415Z AUTO 22009G15KT 40SM 14/02 A2989 RMK AO1 T01390017




USA.gov is the U.S. government's official web portal to all federal, state and local government web resources and services.